Time;durP1;ratioP1;P1;durP2;ratioP2;P2;SDS_P1;SDS_P2;PMS_P1;PMS_P2;Temp;Humidity;BMP_temperature;BMP_pressure;BME280_temperature;BME280_humidity;BME280_pressure;Samples;Min_cycle;Max_cycle;Signal;HPM_P1;HPM_P2
2021/12/21 00:00:49;;;;;;;0.75;0.75;;;-2.40;99.90;;;;;;5094827;28;20039;-85
2021/12/21 00:03:15;;;;;;;3.80;2.35;;;-2.40;99.90;;;;;;5078034;28;20039;-85
2021/12/21 00:05:41;;;;;;;0.50;0.50;;;-2.30;99.90;;;;;;5095399;28;20032;-85
2021/12/21 00:08:10;;;;;;;0.60;0.60;;;-2.40;99.90;;;;;;5094919;28;20108;-85
2021/12/21 00:10:36;;;;;;;2.17;1.33;;;-2.50;99.90;;;;;;5078796;28;20040;-85
2021/12/21 00:13:06;;;;;;;3.78;3.25;;;-2.60;99.90;;;;;;5078394;28;20036;-85
2021/12/21 00:18:35;;;;;;;1.05;0.98;;;-2.70;99.90;;;;;;5071695;28;20054;-85
2021/12/21 00:23:47;;;;;;;1.10;0.93;;;-2.70;99.90;;;;;;5095492;28;20493;-85
2021/12/21 00:26:17;;;;;;;0.65;0.65;;;-2.80;99.90;;;;;;5078084;28;20048;-86
2021/12/21 00:29:01;;;;;;;1.00;0.90;;;-2.80;99.90;;;;;;5078277;28;20055;-85
2021/12/21 00:31:32;;;;;;;1.20;1.10;;;-2.70;99.90;;;;;;5095088;28;20104;-85
2021/12/21 00:33:59;;;;;;;0.73;0.73;;;-2.70;99.90;;;;;;5095260;28;20445;-85
2021/12/21 00:36:28;;;;;;;1.33;1.23;;;-2.80;99.90;;;;;;5077925;28;20127;-86
2021/12/21 00:38:55;;;;;;;0.60;0.60;;;-2.80;99.90;;;;;;5078219;28;20067;-86
2021/12/21 00:41:21;;;;;;;0.77;0.77;;;-2.80;99.90;;;;;;5078232;28;20044;-85
2021/12/21 00:43:47;;;;;;;0.60;0.60;;;-2.80;99.90;;;;;;5078542;28;20043;-85
2021/12/21 00:46:14;;;;;;;0.68;0.68;;;-2.10;99.90;;;;;;5078402;28;20040;-85
2021/12/21 00:48:48;;;;;;;0.60;0.60;;;-2.70;99.90;;;;;;5078226;28;20044;-85
2021/12/21 00:51:14;;;;;;;0.85;0.85;;;-2.70;99.90;;;;;;5062682;28;20046;-85
2021/12/21 00:53:40;;;;;;;0.60;0.60;;;-2.70;99.90;;;;;;5078435;28;20050;-85
2021/12/21 00:56:07;;;;;;;2.25;1.65;;;-2.70;99.90;;;;;;5112681;28;20435;-86
2021/12/21 00:58:32;;;;;;;0.63;0.63;;;-1.90;99.90;;;;;;5078122;28;20039;-85
2021/12/21 01:01:04;;;;;;;1.77;1.40;;;-2.70;99.90;;;;;;5078000;28;20039;-84
2021/12/21 01:03:30;;;;;;;1.08;0.98;;;-1.60;99.90;;;;;;5078501;28;20076;-85
2021/12/21 01:06:24;;;;;;;0.40;0.40;;;-2.70;99.90;;;;;;5081721;28;20024;-85
2021/12/21 01:09:03;;;;;;;1.15;1.05;;;-2.70;99.90;;;;;;5097731;28;20051;-85
2021/12/21 01:11:36;;;;;;;0.55;0.55;;;-2.70;99.90;;;;;;5081612;28;20039;-85
2021/12/21 01:14:50;;;;;;;0.40;0.40;;;-2.70;99.90;;;;;;5098657;28;20047;-85
2021/12/21 01:17:26;;;;;;;0.68;0.68;;;-2.90;99.90;;;;;;5097899;28;20402;-85
2021/12/21 01:20:12;;;;;;;0.50;0.50;;;-2.90;99.90;;;;;;5081403;28;20119;-85
2021/12/21 01:25:23;;;;;;;0.50;0.50;;;-3.10;99.90;;;;;;5098421;28;20042;-85
2021/12/21 01:30:38;;;;;;;0.43;0.43;;;-3.10;99.90;;;;;;5098188;28;20047;-85
2021/12/21 01:35:55;;;;;;;0.52;0.52;;;-3.10;99.90;;;;;;5060736;28;20051;-85
2021/12/21 01:38:28;;;;;;;0.90;0.88;;;-3.10;99.90;;;;;;5080725;28;20032;-85
2021/12/21 01:43:35;;;;;;;0.50;0.50;;;-3.10;99.90;;;;;;5098222;28;20077;-85
2021/12/21 01:51:31;;;;;;;0.60;0.60;;;-3.00;99.90;;;;;;5097617;28;20054;-85
2021/12/21 01:53:58;;;;;;;1.02;0.98;;;-3.00;99.90;;;;;;5080766;28;20058;-85
2021/12/21 01:56:24;;;;;;;1.67;1.60;;;-3.00;99.90;;;;;;5080437;28;20047;-85
2021/12/21 01:58:51;;;;;;;1.70;1.60;;;-2.80;99.90;;;;;;5080675;28;20043;-85
2021/12/21 02:01:19;;;;;;;0.60;0.60;;;-2.90;99.90;;;;;;5080603;28;20122;-84
2021/12/21 02:03:48;;;;;;;1.10;1.00;;;-2.80;99.90;;;;;;5080667;28;20081;-84
2021/12/21 02:06:19;;;;;;;1.20;0.82;;;-2.80;99.90;;;;;;5080359;28;20119;-86
2021/12/21 02:08:45;;;;;;;1.25;1.15;;;-2.80;99.90;;;;;;5080672;28;20032;-85
2021/12/21 02:11:13;;;;;;;0.50;0.50;;;-2.80;99.90;;;;;;5080665;28;20055;-85
2021/12/21 02:13:43;;;;;;;0.75;0.75;;;-2.80;99.90;;;;;;5080232;28;20046;-85
2021/12/21 02:16:09;;;;;;;0.60;0.60;;;-2.80;99.90;;;;;;5080063;28;20031;-86
2021/12/21 02:19:01;;;;;;;0.70;0.70;;;-2.90;99.90;;;;;;5063673;28;20407;-85
2021/12/21 02:21:50;;;;;;;0.93;0.80;;;-2.80;99.90;;;;;;5080253;28;20065;-85
2021/12/21 02:24:19;;;;;;;2.15;1.70;;;-2.80;99.90;;;;;;5097270;28;20523;-84
2021/12/21 02:27:17;;;;;;;0.52;0.52;;;-2.80;99.90;;;;;;5080042;28;20040;-85
2021/12/21 02:29:35;;;;;;;0.60;0.60;;;-2.80;99.90;;;;;;5095363;28;20385;-86
2021/12/21 02:32:02;;;;;;;0.52;0.52;;;-2.80;99.90;;;;;;5079901;28;20036;-86
2021/12/21 02:34:28;;;;;;;1.17;1.08;;;-2.90;99.90;;;;;;5079861;28;20042;-85
2021/12/21 02:36:55;;;;;;;0.70;0.70;;;-2.90;99.90;;;;;;5096701;28;20122;-85
2021/12/21 02:39:22;;;;;;;2.28;1.45;;;-2.90;99.90;;;;;;5096775;28;20035;-85
2021/12/21 02:41:48;;;;;;;2.38;2.17;;;-3.00;99.90;;;;;;5080037;28;20031;-85
2021/12/21 02:44:14;;;;;;;0.50;0.50;;;-3.10;99.90;;;;;;5079768;28;20032;-85
2021/12/21 02:46:42;;;;;;;0.50;0.50;;;-3.10;99.90;;;;;;5079190;28;20034;-86
2021/12/21 02:49:09;;;;;;;0.50;0.50;;;-3.10;99.90;;;;;;5080009;28;20533;-85
2021/12/21 02:51:39;;;;;;;0.60;0.60;;;-3.10;99.90;;;;;;5063304;28;20054;-85
2021/12/21 02:54:05;;;;;;;0.50;0.50;;;-3.20;99.90;;;;;;5079678;28;20047;-85
2021/12/21 02:56:31;;;;;;;2.15;0.93;;;-3.10;99.90;;;;;;5079015;28;20079;-85
2021/12/21 02:58:59;;;;;;;1.38;1.27;;;-3.10;99.90;;;;;;5079470;28;20128;-85
2021/12/21 03:01:25;;;;;;;1.20;0.82;;;-3.20;99.90;;;;;;5096382;28;20425;-85
2021/12/21 03:03:52;;;;;;;1.30;1.25;;;-3.10;99.90;;;;;;5079559;28;20044;-85
2021/12/21 03:09:13;;;;;;;0.50;0.50;;;-1.90;99.90;;;;;;5096078;28;20047;-86
2021/12/21 03:11:48;;;;;;;0.90;0.90;;;-3.10;99.90;;;;;;5079315;28;20039;-85
2021/12/21 03:14:15;;;;;;;0.80;0.80;;;-3.10;99.90;;;;;;5079490;28;20480;-85
2021/12/21 03:16:40;;;;;;;1.83;1.73;;;-3.20;99.90;;;;;;5078603;28;20042;-85
2021/12/21 03:19:08;;;;;;;0.50;0.50;;;-3.20;99.90;;;;;;5095967;28;20031;-85
2021/12/21 03:21:35;;;;;;;0.50;0.50;;;-3.10;99.90;;;;;;5079326;28;20503;-85
2021/12/21 03:24:02;;;;;;;4.13;1.60;;;-3.20;99.90;;;;;;5079203;28;20038;-85
2021/12/21 03:26:28;;;;;;;0.50;0.50;;;-3.30;99.90;;;;;;5078861;28;20075;-85
2021/12/21 03:28:54;;;;;;;2.08;1.90;;;-2.30;99.90;;;;;;5078680;28;20075;-85
2021/12/21 03:31:21;;;;;;;0.70;0.70;;;-3.30;99.90;;;;;;5079348;28;20035;-85
2021/12/21 03:33:48;;;;;;;0.65;0.65;;;-3.30;99.90;;;;;;5062812;28;20036;-85
2021/12/21 03:36:18;;;;;;;0.70;0.70;;;-3.30;99.90;;;;;;5079037;28;20028;-85
2021/12/21 03:39:05;;;;;;;1.00;0.93;;;-3.20;99.90;;;;;;5095836;28;20588;-85
2021/12/21 03:41:31;;;;;;;2.70;1.40;;;-3.20;99.90;;;;;;5078792;28;20032;-86
2021/12/21 03:44:00;;;;;;;1.20;1.10;;;-3.30;99.90;;;;;;5078818;28;20035;-85
2021/12/21 03:46:27;;;;;;;0.63;0.63;;;-3.30;99.90;;;;;;5078345;28;20812;-85
2021/12/21 03:48:52;;;;;;;0.77;0.77;;;-3.40;99.90;;;;;;5062036;28;20063;-85
2021/12/21 03:51:20;;;;;;;0.70;0.70;;;-3.40;99.90;;;;;;5078744;28;20119;-84
2021/12/21 03:53:47;;;;;;;0.60;0.60;;;-3.30;99.90;;;;;;5078723;28;20043;-85
2021/12/21 03:56:33;;;;;;;0.60;0.60;;;-3.30;99.90;;;;;;5078352;28;20395;-85
2021/12/21 03:58:59;;;;;;;0.70;0.70;;;-3.40;99.90;;;;;;5078669;28;20050;-84
2021/12/21 04:01:25;;;;;;;1.05;0.95;;;-3.50;99.90;;;;;;5095414;28;20463;-85
2021/12/21 04:03:51;;;;;;;1.17;1.08;;;-3.60;99.90;;;;;;5095572;28;20116;-85
2021/12/21 04:06:17;;;;;;;0.68;0.68;;;-3.60;99.90;;;;;;5078448;28;20036;-85
2021/12/21 04:08:42;;;;;;;0.60;0.60;;;-3.60;99.90;;;;;;5061848;28;20473;-85
2021/12/21 04:11:08;;;;;;;1.25;1.15;;;-3.60;99.90;;;;;;5078653;28;20623;-85
2021/12/21 04:13:34;;;;;;;0.68;0.68;;;-3.60;99.90;;;;;;5078599;28;20090;-84
2021/12/21 04:16:02;;;;;;;1.38;1.13;;;-3.60;99.90;;;;;;5061721;28;20075;-86
2021/12/21 04:18:28;;;;;;;2.90;1.38;;;-3.60;99.90;;;;;;5078405;28;20044;-85
2021/12/21 04:20:53;;;;;;;2.05;1.83;;;-3.60;99.90;;;;;;5095075;28;20514;-84
2021/12/21 04:23:19;;;;;;;2.35;2.15;;;-3.50;99.90;;;;;;5078533;28;20036;-85
2021/12/21 04:25:45;;;;;;;0.70;0.70;;;-3.50;99.90;;;;;;5078209;28;20036;-85
2021/12/21 04:28:11;;;;;;;0.68;0.68;;;-3.50;99.90;;;;;;5078094;28;20054;-85
2021/12/21 04:30:37;;;;;;;0.60;0.60;;;-3.50;99.90;;;;;;5078405;28;20080;-84
2021/12/21 04:33:05;;;;;;;0.80;0.80;;;-3.50;99.90;;;;;;5078289;28;20044;-84
2021/12/21 04:35:32;;;;;;;0.70;0.70;;;-3.40;99.90;;;;;;5078552;28;20043;-85
2021/12/21 04:38:11;;;;;;;5.38;3.28;;;-3.50;99.90;;;;;;5077907;28;20446;-84
2021/12/21 04:40:41;;;;;;;0.50;0.50;;;-3.50;99.90;;;;;;5081260;28;20046;-84
2021/12/21 04:43:07;;;;;;;0.75;0.75;;;-3.60;99.90;;;;;;5066362;28;20080;-84
2021/12/21 04:45:32;;;;;;;1.02;0.80;;;-3.60;99.90;;;;;;5082437;28;20043;-84
2021/12/21 04:47:58;;;;;;;0.95;0.75;;;-3.60;99.90;;;;;;5081770;28;20038;-84
2021/12/21 04:50:24;;;;;;;2.15;1.23;;;-3.60;99.90;;;;;;5098947;28;20607;-84
2021/12/21 04:52:50;;;;;;;1.23;1.13;;;-3.60;99.90;;;;;;5082167;28;20088;-85
2021/12/21 04:55:15;;;;;;;0.77;0.77;;;-3.60;99.90;;;;;;5081976;28;20039;-85
2021/12/21 04:57:43;;;;;;;1.15;1.10;;;-3.70;99.90;;;;;;5081695;28;20039;-85
2021/12/21 05:00:10;;;;;;;1.30;1.05;;;-3.70;99.90;;;;;;5081893;28;20071;-85
2021/12/21 05:02:54;;;;;;;0.60;0.60;;;-3.60;99.90;;;;;;5070449;28;20043;-84
2021/12/21 05:05:20;;;;;;;0.60;0.60;;;-3.70;99.90;;;;;;5078136;28;20131;-86
2021/12/21 05:07:51;;;;;;;2.28;1.92;;;-3.60;99.90;;;;;;5077962;28;20568;-84
2021/12/21 05:10:18;;;;;;;1.25;1.15;;;-3.60;99.90;;;;;;5077986;28;20127;-84
2021/12/21 05:12:44;;;;;;;0.50;0.50;;;-3.60;99.90;;;;;;5044800;28;20094;-85
2021/12/21 05:15:09;;;;;;;0.60;0.60;;;-3.70;99.90;;;;;;5077708;28;20076;-85
2021/12/21 05:17:35;;;;;;;1.85;1.25;;;-3.70;99.90;;;;;;5077363;28;20036;-85
2021/12/21 05:20:01;;;;;;;1.95;1.08;;;-3.70;99.90;;;;;;5077609;28;20032;-85
2021/12/21 05:22:27;;;;;;;0.85;0.85;;;-3.60;99.90;;;;;;5069273;28;20036;-85
2021/12/21 05:24:54;;;;;;;0.93;0.93;;;-3.60;99.90;;;;;;5060780;28;20412;-85
2021/12/21 05:27:21;;;;;;;0.50;0.50;;;-3.60;99.90;;;;;;5060243;28;20089;-85
2021/12/21 05:29:46;;;;;;;0.90;0.90;;;-2.70;99.90;;;;;;5078226;28;20088;-84
2021/12/21 05:32:12;;;;;;;1.25;1.10;;;-3.70;99.90;;;;;;5068279;28;20144;-84
2021/12/21 05:34:38;;;;;;;0.68;0.65;;;-3.80;99.90;;;;;;5060966;28;20561;-86
2021/12/21 05:37:06;;;;;;;3.33;1.38;;;-3.70;99.90;;;;;;5076865;28;20036;-85
2021/12/21 05:39:42;;;;;;;1.17;1.08;;;-3.80;99.90;;;;;;5077372;28;20526;-85
2021/12/21 05:42:09;;;;;;;0.50;0.50;;;-3.80;99.90;;;;;;5060479;28;20085;-85
2021/12/21 05:44:35;;;;;;;0.50;0.50;;;-3.80;99.90;;;;;;5064395;28;20167;-84
2021/12/21 05:47:00;;;;;;;1.30;0.70;;;-3.80;99.90;;;;;;5079602;28;20071;-84
2021/12/21 05:49:26;;;;;;;0.82;0.73;;;-3.80;99.90;;;;;;5074021;28;20519;-84
2021/12/21 05:51:52;;;;;;;0.95;0.90;;;-3.80;99.90;;;;;;5059891;28;20036;-85
2021/12/21 05:54:21;;;;;;;3.38;1.70;;;-3.80;99.90;;;;;;5060435;28;20036;-84
2021/12/21 05:56:47;;;;;;;0.88;0.80;;;-3.80;99.90;;;;;;5060137;28;20047;-84
2021/12/21 05:59:13;;;;;;;0.50;0.50;;;-3.90;99.90;;;;;;5076811;28;20497;-84
2021/12/21 06:01:39;;;;;;;0.80;0.80;;;-3.90;99.90;;;;;;5076525;28;20036;-85
2021/12/21 06:04:05;;;;;;;2.33;1.92;;;-3.80;99.90;;;;;;5080084;28;20035;-84
2021/12/21 06:06:32;;;;;;;0.65;0.65;;;-3.90;99.90;;;;;;5096826;28;20047;-84
2021/12/21 06:09:00;;;;;;;0.60;0.60;;;-4.00;99.90;;;;;;5094236;28;20036;-85
2021/12/21 06:11:26;;;;;;;0.57;0.57;;;-3.90;99.90;;;;;;5064141;28;20032;-85
2021/12/21 06:14:23;;;;;;;0.60;0.60;;;-3.90;99.90;;;;;;5060016;28;20036;-84
2021/12/21 06:25:35;;;;;;;1.05;0.98;;;-3.90;99.90;;;;;;5076357;28;20189;-85
2021/12/21 06:28:03;;;;;;;3.08;2.80;;;-3.90;99.90;;;;;;5059549;28;20032;-85
2021/12/21 06:30:29;;;;;;;0.40;0.40;;;-3.90;99.90;;;;;;5059702;28;20036;-84
2021/12/21 06:32:55;;;;;;;0.63;0.63;;;-3.90;99.90;;;;;;5074166;28;20047;-85
2021/12/21 06:35:21;;;;;;;1.20;1.10;;;-3.80;99.90;;;;;;5061066;28;20043;-85
2021/12/21 06:37:46;;;;;;;1.90;1.47;;;-3.80;99.90;;;;;;5075551;28;20032;-83
2021/12/21 06:40:12;;;;;;;1.30;1.20;;;-3.80;99.90;;;;;;5058991;28;20443;-84
2021/12/21 06:42:40;;;;;;;0.50;0.50;;;-3.90;99.90;;;;;;5059139;28;20090;-84
2021/12/21 06:45:23;;;;;;;0.70;0.70;;;-3.90;99.90;;;;;;5059095;28;20032;-84
2021/12/21 06:53:18;;;;;;;0.60;0.60;;;-4.10;99.90;;;;;;5075258;28;20055;-85
2021/12/21 06:55:43;;;;;;;0.63;0.63;;;-4.10;99.90;;;;;;5066620;28;20569;-85
2021/12/21 06:58:09;;;;;;;1.27;0.90;;;-4.10;99.90;;;;;;5062616;28;20530;-85
2021/12/21 07:00:35;;;;;;;2.65;2.47;;;-4.10;99.90;;;;;;5095601;28;20504;-85
2021/12/21 07:03:01;;;;;;;0.50;0.50;;;-4.10;99.90;;;;;;5077671;28;20078;-84
2021/12/21 07:05:27;;;;;;;1.73;1.57;;;-4.10;99.90;;;;;;5096204;28;20032;-85
2021/12/21 07:07:52;;;;;;;1.23;1.13;;;-4.20;99.90;;;;;;5095311;28;20042;-85
2021/12/21 07:10:25;;;;;;;0.53;0.53;;;-4.10;99.90;;;;;;5095349;28;20047;-85
2021/12/21 07:18:23;;;;;;;0.55;0.55;;;-4.00;99.90;;;;;;5094720;28;20070;-85
2021/12/21 07:20:50;;;;;;;0.55;0.55;;;-4.00;99.90;;;;;;5070076;28;20090;-85
2021/12/21 07:23:15;;;;;;;0.70;0.70;;;-4.00;99.90;;;;;;5074219;28;20122;-85
2021/12/21 07:25:41;;;;;;;0.93;0.93;;;-4.10;99.90;;;;;;5095353;28;20114;-85
2021/12/21 07:28:06;;;;;;;1.33;1.17;;;-4.20;99.90;;;;;;5078481;28;20086;-85
2021/12/21 07:30:32;;;;;;;0.70;0.70;;;-4.10;99.90;;;;;;5078475;28;20109;-85
2021/12/21 07:32:57;;;;;;;0.60;0.60;;;-4.20;99.90;;;;;;5078249;28;20038;-85
2021/12/21 07:35:23;;;;;;;2.30;1.73;;;-4.20;99.90;;;;;;5078455;28;20047;-85
2021/12/21 07:37:49;;;;;;;0.75;0.75;;;-4.20;99.90;;;;;;5075574;28;20050;-85
2021/12/21 07:40:15;;;;;;;1.17;1.08;;;-4.30;99.90;;;;;;5058238;28;20051;-85
2021/12/21 07:42:41;;;;;;;0.77;0.77;;;-4.30;99.90;;;;;;5058129;28;20028;-85
2021/12/21 07:45:11;;;;;;;4.07;1.93;;;-4.30;99.90;;;;;;5074916;28;20092;-85
2021/12/21 07:47:38;;;;;;;0.80;0.80;;;-4.30;99.90;;;;;;5057966;28;20144;-85
2021/12/21 07:50:04;;;;;;;0.70;0.70;;;-4.30;99.90;;;;;;5058388;28;20253;-85
2021/12/21 07:52:30;;;;;;;0.65;0.65;;;-4.30;99.90;;;;;;5058377;28;20072;-85
2021/12/21 07:54:56;;;;;;;2.63;1.65;;;-4.40;99.90;;;;;;5058435;28;20504;-84
2021/12/21 07:57:21;;;;;;;1.02;0.90;;;-4.40;99.90;;;;;;5058299;28;20048;-85
2021/12/21 07:59:48;;;;;;;2.28;2.08;;;-4.40;99.90;;;;;;5074865;28;20393;-85
2021/12/21 08:02:14;;;;;;;1.17;1.07;;;-4.00;99.90;;;;;;5058637;28;20127;-85
2021/12/21 08:04:42;;;;;;;1.20;1.10;;;-4.40;99.90;;;;;;5067771;28;20036;-84
2021/12/21 08:07:13;;;;;;;0.80;0.80;;;-4.40;99.90;;;;;;5077858;28;20544;-84
2021/12/21 08:09:43;;;;;;;0.65;0.65;;;-4.40;99.90;;;;;;5068534;28;20040;-84
2021/12/21 08:12:17;;;;;;;0.50;0.50;;;-4.40;99.90;;;;;;5057983;28;20408;-86
2021/12/21 08:14:48;;;;;;;1.17;1.07;;;-4.40;99.90;;;;;;5061328;28;20040;-85
2021/12/21 08:17:15;;;;;;;1.37;1.27;;;-4.40;99.90;;;;;;5067389;28;20050;-85
2021/12/21 08:19:40;;;;;;;1.57;1.47;;;-4.30;99.90;;;;;;5081985;28;20031;-85
2021/12/21 08:22:06;;;;;;;0.50;0.50;;;-4.20;99.90;;;;;;5098575;28;20039;-85
2021/12/21 08:24:33;;;;;;;1.00;0.90;;;-4.20;99.90;;;;;;5098583;28;20071;-85
2021/12/21 08:27:00;;;;;;;1.67;1.13;;;-4.00;99.90;;;;;;5098285;28;20089;-85
2021/12/21 08:29:27;;;;;;;0.65;0.65;;;-4.00;99.90;;;;;;5081696;28;20138;-85
2021/12/21 08:31:52;;;;;;;0.70;0.70;;;-3.90;99.90;;;;;;5064474;28;20028;-84
2021/12/21 08:34:18;;;;;;;0.90;0.90;;;-3.80;99.90;;;;;;5069781;28;20093;-85
2021/12/21 08:36:44;;;;;;;0.70;0.70;;;-3.80;99.90;;;;;;5079465;28;20039;-85
2021/12/21 08:39:10;;;;;;;0.57;0.57;;;-2.10;99.90;;;;;;5065270;28;20031;-84
2021/12/21 08:41:41;;;;;;;0.60;0.60;;;-3.60;99.90;;;;;;5081856;28;20028;-85
2021/12/21 08:44:09;;;;;;;0.50;0.50;;;-3.50;99.90;;;;;;5081824;28;20039;-84
2021/12/21 08:46:35;;;;;;;0.50;0.50;;;-3.40;99.90;;;;;;5081244;28;20035;-85
2021/12/21 08:49:00;;;;;;;2.20;1.37;;;-3.40;99.90;;;;;;5098223;28;20035;-85
2021/12/21 08:51:26;;;;;;;0.50;0.50;;;-3.30;99.90;;;;;;5069264;28;20105;-85
2021/12/21 08:53:51;;;;;;;2.13;1.93;;;-3.30;99.90;;;;;;5061292;28;20039;-85
2021/12/21 08:56:17;;;;;;;1.25;1.15;;;-3.20;99.90;;;;;;5060957;28;20038;-85
2021/12/21 08:58:44;;;;;;;1.30;1.20;;;-3.20;99.90;;;;;;5079483;28;20047;-85
2021/12/21 09:01:10;;;;;;;0.80;0.80;;;-3.20;99.90;;;;;;5098423;28;20047;-84
2021/12/21 09:03:37;;;;;;;0.70;0.70;;;-3.10;99.90;;;;;;5081855;28;20114;-84
2021/12/21 09:06:02;;;;;;;0.75;0.75;;;-3.10;99.90;;;;;;5080663;28;20039;-86
2021/12/21 09:08:28;;;;;;;0.50;0.50;;;-3.00;99.90;;;;;;5081278;28;20039;-85
2021/12/21 09:10:54;;;;;;;1.02;0.93;;;-2.90;99.90;;;;;;5044561;28;20071;-85
2021/12/21 09:13:20;;;;;;;1.73;1.63;;;-2.90;99.90;;;;;;5061205;28;20085;-84
2021/12/21 09:15:45;;;;;;;2.30;2.15;;;-2.80;99.90;;;;;;5078049;28;20039;-85
2021/12/21 09:18:12;;;;;;;1.35;1.25;;;-2.70;99.90;;;;;;5060658;28;20408;-84
2021/12/21 09:20:37;;;;;;;0.50;0.50;;;-2.70;99.90;;;;;;5073082;28;20046;-84
2021/12/21 09:23:04;;;;;;;0.60;0.60;;;-2.60;99.90;;;;;;5060942;28;20043;-84
2021/12/21 09:25:30;;;;;;;0.60;0.60;;;-2.60;99.90;;;;;;5060164;28;20089;-85
2021/12/21 09:27:56;;;;;;;0.50;0.50;;;-2.50;99.90;;;;;;5060324;28;20046;-85
2021/12/21 09:30:24;;;;;;;0.50;0.50;;;-2.40;99.90;;;;;;5077436;28;20036;-85
2021/12/21 09:32:51;;;;;;;0.85;0.85;;;-2.40;99.90;;;;;;5060467;28;20094;-85
2021/12/21 09:35:17;;;;;;;0.50;0.50;;;-2.40;99.90;;;;;;5060723;28;20092;-85
2021/12/21 09:37:44;;;;;;;4.13;2.00;;;-2.30;99.90;;;;;;5090329;28;20458;-83
2021/12/21 09:40:14;;;;;;;0.50;0.50;;;-1.60;99.90;;;;;;5060830;28;20040;-84
2021/12/21 09:42:40;;;;;;;1.45;1.35;;;-2.20;99.90;;;;;;5060440;28;20409;-84
2021/12/21 09:45:07;;;;;;;0.50;0.50;;;-2.10;99.90;;;;;;5060402;28;20032;-84
2021/12/21 09:47:33;;;;;;;0.70;0.70;;;-2.00;99.90;;;;;;5060106;28;20040;-84
2021/12/21 09:50:00;;;;;;;0.60;0.60;;;-1.90;99.90;;;;;;5044091;28;20139;-83
2021/12/21 09:52:30;;;;;;;0.57;0.57;;;-1.90;99.90;;;;;;5074800;28;20550;-84
2021/12/21 09:55:01;;;;;;;1.05;0.85;;;-1.80;99.90;;;;;;5076738;28;20052;-84
2021/12/21 09:57:27;;;;;;;1.95;1.75;;;-1.80;99.90;;;;;;5059913;28;20075;-84
2021/12/21 09:59:53;;;;;;;0.60;0.60;;;-1.60;99.90;;;;;;5060246;28;20044;-84
2021/12/21 10:02:22;;;;;;;1.05;0.95;;;-1.60;99.90;;;;;;5043456;28;20067;-84
2021/12/21 10:04:55;;;;;;;0.68;0.68;;;-1.50;99.90;;;;;;5075661;28;20404;-84
2021/12/21 10:07:22;;;;;;;2.80;2.60;;;-1.50;99.90;;;;;;5084887;28;20032;-84
2021/12/21 10:09:48;;;;;;;0.63;0.60;;;-1.40;99.90;;;;;;5079947;28;20377;-84
2021/12/21 10:12:30;;;;;;;0.40;0.40;;;-1.30;99.90;;;;;;5079887;28;20036;-85
2021/12/21 10:15:12;;;;;;;1.30;1.20;;;-1.30;99.90;;;;;;5060335;28;20040;-84
2021/12/21 10:17:46;;;;;;;2.70;2.47;;;-1.20;99.90;;;;;;5060988;28;20415;-84
2021/12/21 10:20:13;;;;;;;0.50;0.50;;;-1.10;99.90;;;;;;5092929;28;20126;-84
2021/12/21 10:22:51;;;;;;;0.60;0.60;;;-1.00;99.90;;;;;;5068399;28;20289;-85
2021/12/21 10:25:19;;;;;;;0.82;0.82;;;-0.90;99.90;;;;;;5064634;28;20036;-84
2021/12/21 10:27:46;;;;;;;0.50;0.50;;;-0.90;99.90;;;;;;5079622;28;20535;-85
2021/12/21 10:30:12;;;;;;;1.75;1.52;;;-0.80;99.90;;;;;;5096766;28;20493;-84
2021/12/21 10:32:52;;;;;;;0.95;0.93;;;-0.70;99.90;;;;;;5059588;28;20047;-84
2021/12/21 10:35:38;;;;;;;0.60;0.60;;;-0.70;99.90;;;;;;5069441;28;20076;-84
2021/12/21 10:38:05;;;;;;;1.30;1.20;;;-0.70;99.90;;;;;;5058484;28;20532;-84
2021/12/21 10:40:30;;;;;;;0.60;0.60;;;-0.70;99.90;;;;;;5076479;28;20489;-84
2021/12/21 10:43:05;;;;;;;0.57;0.57;;;-0.70;99.90;;;;;;5059519;28;20038;-84
2021/12/21 10:45:38;;;;;;;0.45;0.45;;;-0.70;99.90;;;;;;5076238;28;20108;-84
2021/12/21 10:48:06;;;;;;;0.57;0.57;;;-0.60;99.90;;;;;;5059133;28;20043;-84
2021/12/21 10:50:34;;;;;;;0.73;0.73;;;0.00;99.90;;;;;;5054478;28;20039;-84
2021/12/21 10:53:01;;;;;;;1.25;1.15;;;-0.50;99.90;;;;;;5070315;28;20036;-86
2021/12/21 10:55:32;;;;;;;0.50;0.50;;;-0.50;99.90;;;;;;5060282;28;20028;-84
2021/12/21 10:58:16;;;;;;;0.50;0.50;;;-0.50;99.90;;;;;;5061852;28;20044;-85
2021/12/21 11:01:05;;;;;;;0.68;0.68;;;-0.40;99.90;;;;;;5070325;28;20039;-85
2021/12/21 11:03:44;;;;;;;0.60;0.60;;;-0.40;99.90;;;;;;5079055;28;20496;-84
2021/12/21 11:06:16;;;;;;;2.45;2.25;;;-0.40;99.90;;;;;;5095363;28;20028;-85
2021/12/21 11:08:46;;;;;;;0.50;0.50;;;-0.30;99.90;;;;;;5095341;28;20040;-84
2021/12/21 11:11:33;;;;;;;1.20;1.05;;;-0.20;99.90;;;;;;5058347;28;20123;-84
2021/12/21 11:14:03;;;;;;;0.50;0.50;;;-0.20;99.90;;;;;;5059289;28;20501;-84
2021/12/21 11:16:48;;;;;;;1.30;1.20;;;-0.20;99.90;;;;;;5074797;28;20132;-84
2021/12/21 11:19:20;;;;;;;1.45;1.35;;;-0.10;99.90;;;;;;5069491;28;20068;-84
2021/12/21 11:21:47;;;;;;;1.65;1.50;;;-0.10;99.90;;;;;;5072943;28;20440;-85
2021/12/21 11:24:34;;;;;;;4.22;3.75;;;0.20;99.90;;;;;;5076389;28;20039;-85
2021/12/21 11:27:11;;;;;;;0.68;0.68;;;0.00;99.90;;;;;;5057275;28;20527;-84
2021/12/21 11:29:39;;;;;;;0.60;0.60;;;0.00;99.90;;;;;;5057406;28;20093;-86
2021/12/21 11:32:07;;;;;;;0.60;0.60;;;0.20;99.90;;;;;;5057416;28;20044;-85
2021/12/21 11:34:56;;;;;;;1.63;1.42;;;0.10;99.90;;;;;;5075742;28;20036;-85
2021/12/21 11:37:23;;;;;;;0.40;0.40;;;0.10;99.90;;;;;;5089722;28;20424;-84
2021/12/21 11:39:49;;;;;;;0.50;0.50;;;0.10;99.90;;;;;;5085987;28;20526;-85
2021/12/21 11:42:29;;;;;;;0.40;0.40;;;0.20;99.90;;;;;;5058196;28;20167;-84
2021/12/21 11:45:26;;;;;;;1.65;1.52;;;0.20;99.90;;;;;;5082989;28;20396;-84
2021/12/21 11:48:31;;;;;;;1.25;1.15;;;0.20;99.90;;;;;;5045527;28;20044;-85
2021/12/21 11:51:04;;;;;;;0.50;0.50;;;0.40;99.90;;;;;;5095891;27;20034;-85
2021/12/21 11:53:30;;;;;;;0.77;0.75;;;1.10;99.90;;;;;;5080859;28;20577;-84
2021/12/21 11:55:55;;;;;;;0.70;0.70;;;0.50;99.90;;;;;;5066083;28;20069;-85
2021/12/21 11:58:24;;;;;;;0.50;0.50;;;0.50;99.90;;;;;;5065353;28;20085;-85
2021/12/21 12:00:55;;;;;;;0.90;0.90;;;0.50;99.90;;;;;;5072459;28;20032;-85
2021/12/21 12:03:24;;;;;;;0.60;0.60;;;2.90;99.90;;;;;;5076340;28;20047;-85
2021/12/21 12:05:56;;;;;;;0.70;0.68;;;0.60;99.90;;;;;;5076054;28;20127;-85
2021/12/21 12:08:23;;;;;;;0.45;0.45;;;0.60;99.90;;;;;;5072887;28;20453;-86
2021/12/21 12:10:57;;;;;;;1.13;1.02;;;0.70;99.90;;;;;;5093293;28;20051;-85
2021/12/21 12:13:40;;;;;;;0.40;0.40;;;0.60;99.90;;;;;;5056467;28;20515;-85
2021/12/21 12:16:09;;;;;;;0.60;0.60;;;0.70;99.90;;;;;;5057097;28;20044;-84
2021/12/21 12:18:47;;;;;;;0.40;0.40;;;0.70;99.90;;;;;;5064542;28;20035;-85
2021/12/21 12:21:20;;;;;;;0.50;0.50;;;0.80;99.90;;;;;;5066276;28;20489;-85
2021/12/21 12:23:55;;;;;;;0.65;0.63;;;0.90;99.90;;;;;;5092754;28;20180;-84
2021/12/21 12:26:24;;;;;;;0.40;0.40;;;0.90;99.90;;;;;;5078498;28;20031;-85
2021/12/21 12:28:49;;;;;;;1.30;1.02;;;0.90;99.90;;;;;;5093238;28;20043;-84
2021/12/21 12:31:36;;;;;;;1.25;1.15;;;0.90;99.90;;;;;;5087626;28;20041;-85
2021/12/21 12:34:03;;;;;;;0.40;0.40;;;0.90;99.90;;;;;;5057615;28;20040;-84
2021/12/21 12:36:32;;;;;;;0.40;0.40;;;1.00;99.90;;;;;;5057408;28;20047;-85
2021/12/21 12:38:58;;;;;;;0.50;0.50;;;1.10;99.90;;;;;;5057090;28;20068;-85
2021/12/21 12:41:24;;;;;;;0.70;0.70;;;1.20;99.90;;;;;;5058165;28;20844;-84
2021/12/21 12:43:49;;;;;;;0.50;0.50;;;1.30;99.90;;;;;;5057392;28;20094;-84
2021/12/21 12:46:25;;;;;;;0.57;0.57;;;1.30;99.90;;;;;;5076395;28;20040;-85
2021/12/21 12:48:51;;;;;;;2.60;1.25;;;1.30;99.90;;;;;;5062489;28;20059;-84
2021/12/21 12:51:33;;;;;;;0.40;0.40;;;1.30;99.90;;;;;;5062997;28;20570;-85
2021/12/21 12:54:00;;;;;;;0.90;0.90;;;1.30;99.90;;;;;;5064406;28;20043;-84
2021/12/21 12:56:26;;;;;;;0.43;0.43;;;1.30;99.90;;;;;;5063552;28;20032;-85
2021/12/21 12:59:01;;;;;;;1.13;1.02;;;1.30;99.90;;;;;;5070005;28;20096;-85
2021/12/21 13:01:30;;;;;;;6.72;4.90;;;1.40;99.90;;;;;;5099340;27;20061;-85
2021/12/21 13:03:59;;;;;;;1.52;1.42;;;1.60;99.90;;;;;;5081964;28;20059;-84
2021/12/21 13:06:34;;;;;;;2.05;1.05;;;1.60;99.90;;;;;;5079500;28;20105;-85
2021/12/21 13:09:00;;;;;;;2.38;1.45;;;1.70;99.90;;;;;;5066538;28;20036;-84
2021/12/21 13:11:33;;;;;;;1.13;1.02;;;1.70;99.90;;;;;;5060947;28;20081;-84
2021/12/21 13:14:00;;;;;;;1.48;1.35;;;1.80;99.90;;;;;;5060993;28;20054;-85
2021/12/21 13:16:28;;;;;;;0.82;0.82;;;1.90;99.90;;;;;;5044047;28;20036;-85
2021/12/21 13:18:57;;;;;;;6.78;6.20;;;1.90;99.90;;;;;;5085440;28;20488;-84
2021/12/21 13:21:32;;;;;;;0.43;0.43;;;1.90;99.90;;;;;;5068371;28;20059;-84
2021/12/21 13:24:03;;;;;;;1.05;0.98;;;1.80;99.90;;;;;;5080800;28;20067;-84
2021/12/21 13:26:45;;;;;;;2.83;2.42;;;1.80;99.90;;;;;;5074338;28;20139;-84
2021/12/21 13:29:14;;;;;;;0.52;0.52;;;1.80;99.90;;;;;;5044620;28;20501;-85
2021/12/21 13:31:40;;;;;;;1.33;0.75;;;1.80;99.90;;;;;;5060334;28;20043;-85
2021/12/21 13:34:07;;;;;;;1.35;1.25;;;1.80;99.90;;;;;;5084246;28;20042;-84
2021/12/21 13:36:35;;;;;;;0.50;0.50;;;1.90;99.90;;;;;;5096003;28;20045;-85
2021/12/21 13:39:25;;;;;;;0.50;0.50;;;1.90;99.90;;;;;;5074091;28;20114;-85
2021/12/21 13:42:16;;;;;;;0.43;0.43;;;1.90;99.90;;;;;;5062151;28;20485;-85
2021/12/21 13:45:03;;;;;;;1.77;1.55;;;1.90;99.90;;;;;;5077832;28;20467;-85